KEND/END METAR and TAF weather

Enter ICAO airport designator
Station Type Date Time Source
KEND METAR 2019/05/26 00:58 UTC NOAA

KEND 260058Z AUTO 12004KT 10SM -TSRA FEW038 SCT060 BKN075 BKN120 BKN150 24/24 A2995 RMK AO2 TSB58 SLP620 $


Station Type Date Time Source
KEND Decoded METAR 2019/05/26 00:58 UTC NOAA

Vance Air Force Base / Enid, OK, United States (KEND) 36-20N 097-55W
May 25, 2019 - 08:58 PM EDT / 2019.05.26 0058 UTC
Wind: from the ESE (120 degrees) at 5 MPH (4 KT):0
Visibility: 10 mile(s):0
Sky conditions: mostly cloudy
Weather: light rain with thunder
Temperature: 75 F (24 C)
Dew Point: 75 F (24 C)
Relative Humidity: 100%
Pressure (altimeter): 29.95 in. Hg (1014 hPa)
ob: KEND 260058Z AUTO 12004KT 10SM -TSRA FEW038 SCT060 BKN075 BKN120 BKN150 24/24 A2995 RMK AO2 TSB58 SLP620
cycle: 1

Station Type Date Time Source
KEND TAF 2019/05/24 03:54 UTC NOAA

TAF TAF
AMD KEND 240350Z 2403/2508 12015G25KT 9000 -SHRA OVC020 QNH2994INS
TEMPO 2404/2416 21015G30KT 6000 -TSRA OVC012CB
BECMG 2415/2416 19025G35KT 8000 -SHRA OVC025 QNH2983INS
TEMPO 2422/2504 18035G50KT 3200 TSRAGR OVC020CB TX28/2421Z TN22/2412Z LAST NO
AMDS AFT 2403 NEXT 2810

Example: see airport list